ADDS METAR Data INFO
IDs: Format: Raw Decoded Include TAF

Data at: 1148 UTC 25 Jun 2018

KBMQ 251053Z AUTO 18008KT 10SM BKN019 BKN027 OVC041 25/22 A2997 RMK AO2 SLP126 T02500217
KBMQ 250953Z AUTO 19010G20KT 10SM FEW019 BKN027 OVC032 25/21 A2996 RMK AO2 SLP125 T02500211
KBMQ 250853Z AUTO 18012G20KT 10SM BKN018 OVC027 26/22 A2993 RMK AO2 PK WND 17026/0754 SLP113 T02560217 55003
KBMQ 250753Z AUTO 17015G26KT 10SM BKN020 OVC037 26/22 A2991 RMK AO2 PK WND 17026/0749 SLP107 T02610217
KBMQ 250653Z AUTO 17013G20KT 10SM FEW018 SCT024 OVC030 26/22 A2993 RMK AO2 SLP114 T02610217
KBMQ 250620Z AUTO 16009G19KT 10SM SCT021 BKN027 26/22 A2994 RMK AO2 T02610222
KBMQ 250553Z AUTO 16008G18KT 10SM FEW021 FEW029 26/22 A2994 RMK AO2 SLP118 T02610222 10339 20261 403610244 50014
KBMQ 250537Z AUTO 15007G18KT 130V190 10SM SCT023 BKN030 27/22 A2994 RMK AO2 T02670217
KBMQ 250526Z AUTO 14008G15KT 10SM BKN026 BKN030 27/22 A2994 RMK AO2 T02670217
KBMQ 250453Z AUTO 14007KT 10SM CLR 27/22 A2995 RMK AO2 SLP120 T02720217
KBMQ 250353Z AUTO 15004KT 10SM SCT034 28/21 A2994 RMK AO2 SLP117 T02830211
KBMQ 250253Z AUTO 14012G20KT 10SM CLR 29/21 A2990 RMK AO2 SLP104 T02940206 53025
KBMQ 250153Z AUTO 16008G17KT 10SM CLR 31/21 A2987 RMK AO2 SLP094 T03060211
KBMQ 250053Z AUTO 15012G20KT 10SM CLR 32/20 A2985 RMK AO2 SLP086 T03220200
KBMQ 242353Z AUTO 15013G20KT 10SM CLR 34/19 A2982 RMK AO2 PK WND 17028/2315 SLP078 T03390194 10361 20333 56011
KBMQ 242253Z AUTO 17014G26KT 10SM CLR 35/19 A2983 RMK AO2 PK WND 16026/2253 SLP080 T03500189
KBMQ 242153Z AUTO 14016G24KT 10SM CLR 36/19 A2985 RMK AO2 PK WND 15027/2130 SLP085 T03560189
KBMQ 242053Z AUTO 14013G25KT 10SM CLR 36/19 A2986 RMK AO2 PK WND 18026/2033 SLP089 T03610194 58012
KBMQ 241953Z AUTO 15012G21KT 130V190 10SM CLR 36/18 A2988 RMK AO2 SLP097 T03610183
KBMQ 241853Z AUTO 18011G19KT 10SM CLR 35/19 A2990 RMK AO2 SLP101 T03500189
KBMQ 241753Z AUTO 17011G23KT 10SM CLR 33/19 A2990 RMK AO2 SLP102 T03330189 10339 20244 52002
KBMQ 241653Z AUTO 18014G20KT 10SM CLR 32/20 A2990 RMK AO2 SLP102 T03220200
KBMQ 241553Z AUTO 18013G23KT 10SM CLR 31/20 A2989 RMK AO2 SLP101 T03060200
KBMQ 241453Z AUTO 19017G28KT 10SM SCT028 29/21 A2989 RMK AO2 PK WND 18028/1447 SLP100 T02890206 51019
KBMQ 241353Z AUTO 19017G28KT 9SM FEW021 27/21 A2988 RMK AO2 PK WND 19028/1351 SLP098 T02670211
KBMQ 241327Z AUTO 18012G19KT 9SM SCT019 26/22 A2988 RMK AO2 T02610217
KBMQ 241253Z AUTO 18015G23KT 9SM BKN019 25/22 A2987 RMK AO2 PK WND 18026/1155 SLP093 T02500217
KBMQ 241153Z AUTO 18012G24KT 8SM CLR 24/22 A2983 RMK AO2 PK WND 18028/1055 SLP081 T02440217 10278 20244 55004
KBMQ 241053Z AUTO 18017G31KT 9SM CLR 24/22 A2982 RMK AO2 PK WND 17031/1044 SLP075 T02440217
KBMQ 240953Z AUTO 17015G29KT 10SM CLR 25/22 A2983 RMK AO2 PK WND 17029/0950 SLP078 T02500217
KBMQ 240853Z AUTO 17015G27KT 10SM CLR 26/22 A2984 RMK AO2 PK WND 18027/0851 SLP084 T02560217 58028
KBMQ 240753Z AUTO 16007KT 10SM CLR 26/23 A2988 RMK AO2 SLP096 T02610228
KBMQ 240653Z AUTO 00000KT 10SM FEW020 27/23 A2993 RMK AO2 SLP113 T02720228
KBMQ 240553Z AUTO 17005KT 10SM FEW022 OVC032 28/23 A2993 RMK AO2 LTG DSNT NW SLP114 T02780228 10344 20278 403670250 53042
KBMQ 240535Z AUTO 17005KT 10SM SCT025 OVC030 28/23 A2991 RMK AO2 LTG DSNT NW T02780228
KBMQ 240453Z AUTO 17009G15KT 10SM OVC026 28/23 A2988 RMK AO2 SLP097 T02780228
KBMQ 240431Z AUTO 17009G17KT 10SM BKN024 28/23 A2986 RMK AO2 T02780228
KBMQ 240353Z AUTO 16009G18KT 10SM FEW032 28/23 A2985 RMK AO2 SLP086 T02830228
KBMQ 240253Z AUTO 16009G17KT 10SM CLR 29/22 A2980 RMK AO2 SLP071 T02940222 53015
KBMQ 240153Z AUTO 15008G17KT 120V190 10SM CLR 31/21 A2977 RMK AO2 SLP060 T03110211
KBMQ 240053Z AUTO 15006G15KT 10SM CLR 33/22 A2976 RMK AO2 SLP057 T03280217
KBMQ 232353Z AUTO 14015G22KT 10SM CLR 34/21 A2976 RMK AO2 SLP055 T03440206 10367 20333 56014